createdAt,value
2022-09-12T00:00:51.989Z,89.78
2022-09-12T00:03:43.392Z,89.73
2022-09-12T00:06:34.792Z,89.82
2022-09-12T00:09:23.403Z,90.00
2022-09-12T00:12:06.027Z,89.90
2022-09-12T00:14:47.789Z,89.82
2022-09-12T00:17:33.792Z,89.97
2022-09-12T00:20:15.181Z,89.94
2022-09-12T00:23:04.292Z,90.08
2022-09-12T00:25:43.698Z,90.03
2022-09-12T00:28:13.409Z,89.95
2022-09-12T00:31:05.540Z,90.00
2022-09-12T00:33:48.135Z,89.96
2022-09-12T00:36:37.011Z,90.10
2022-09-12T00:39:16.609Z,90.32
2022-09-12T00:41:55.343Z,90.31
2022-09-12T00:44:53.244Z,90.22
2022-09-12T00:47:27.639Z,90.46
2022-09-12T00:50:17.563Z,90.65
2022-09-12T00:53:08.026Z,90.60
2022-09-12T00:55:57.782Z,90.75
2022-09-12T00:58:42.932Z,90.73
2022-09-12T01:01:25.953Z,90.48
2022-09-12T01:04:12.582Z,90.35
2022-09-12T01:06:57.721Z,90.28
2022-09-12T01:09:47.181Z,90.56
2022-09-12T01:12:18.903Z,90.77
2022-09-12T01:15:00.148Z,91.08
2022-09-12T01:18:07.078Z,91.19
2022-09-12T01:21:11.201Z,91.22
2022-09-12T01:24:30.735Z,91.34
2022-09-12T01:27:33.059Z,91.54
2022-09-12T01:30:43.271Z,91.48
2022-09-12T01:33:35.549Z,91.58
2022-09-12T01:36:18.978Z,91.63
2022-09-12T01:39:02.017Z,91.76
2022-09-12T01:41:52.361Z,91.69
2022-09-12T01:44:37.643Z,91.62
2022-09-12T01:47:19.649Z,91.68
2022-09-12T01:49:58.821Z,91.63
2022-09-12T01:52:43.723Z,91.56
2022-09-12T01:55:36.141Z,91.61
2022-09-12T01:58:18.488Z,91.66
2022-09-12T02:00:55.298Z,91.58
2022-09-12T02:03:44.403Z,91.69
2022-09-12T02:06:29.622Z,91.69
2022-09-12T02:09:23.372Z,91.68
2022-09-12T02:12:15.503Z,91.75
2022-09-12T02:14:59.465Z,91.93
2022-09-12T02:17:51.839Z,91.69
2022-09-12T02:20:47.842Z,91.54
2022-09-12T02:23:24.804Z,91.64
2022-09-12T02:26:00.006Z,91.69
2022-09-12T02:28:44.070Z,91.44
2022-09-12T02:31:33.378Z,91.52
2022-09-12T02:34:14.925Z,91.61
2022-09-12T02:37:05.542Z,91.44
2022-09-12T02:39:45.730Z,91.56
2022-09-12T02:42:16.727Z,91.31
2022-09-12T02:44:57.059Z,91.26
2022-09-12T02:47:34.061Z,91.32
2022-09-12T02:50:12.867Z,91.34
2022-09-12T02:53:04.366Z,91.41
2022-09-12T02:55:43.767Z,91.15
2022-09-12T02:58:33.458Z,91.21
2022-09-12T03:01:35.709Z,91.22
2022-09-12T03:04:26.956Z,91.35
2022-09-12T03:07:13.330Z,91.54
2022-09-12T03:10:02.811Z,91.59
2022-09-12T03:12:52.629Z,91.60
2022-09-12T03:15:53.428Z,91.48
2022-09-12T03:21:55.990Z,91.50
2022-09-12T03:24:55.445Z,91.61
2022-09-12T03:27:34.591Z,91.67
2022-09-12T03:30:27.417Z,91.52
2022-09-12T03:32:59.579Z,91.63
2022-09-12T03:35:52.715Z,91.39
2022-09-12T03:38:25.041Z,91.23
2022-09-12T03:40:59.929Z,91.05
2022-09-12T03:43:35.112Z,91.12
2022-09-12T03:46:25.766Z,90.88
2022-09-12T03:49:08.992Z,90.98
2022-09-12T03:51:44.160Z,90.88
2022-09-12T03:54:18.985Z,90.88
2022-09-12T03:57:09.614Z,90.67
2022-09-12T03:59:54.416Z,90.75
2022-09-12T04:02:26.927Z,90.71
2022-09-12T04:05:06.429Z,90.42
2022-09-12T04:07:44.127Z,90.52
2022-09-12T04:10:19.029Z,90.65
2022-09-12T04:12:55.250Z,91.01
2022-09-12T04:15:37.183Z,90.93
2022-09-12T04:18:31.273Z,90.95
2022-09-12T04:21:17.956Z,90.94
2022-09-12T04:23:54.380Z,90.90
2022-09-12T04:26:47.012Z,91.11
2022-09-12T04:29:21.615Z,90.93
2022-09-12T04:32:15.155Z,91.06
2022-09-12T04:34:53.486Z,91.42
2022-09-12T04:37:28.375Z,91.19
2022-09-12T04:40:03.631Z,90.86
2022-09-12T04:42:41.258Z,90.66
2022-09-12T04:45:26.604Z,90.31
2022-09-12T04:48:18.957Z,90.53
2022-09-12T04:51:09.704Z,90.41
2022-09-12T04:53:49.053Z,90.53
2022-09-12T04:56:32.600Z,90.67
2022-09-12T04:59:17.887Z,90.89
2022-09-12T05:02:10.203Z,90.82
2022-09-12T05:04:52.718Z,90.67
2022-09-12T05:07:25.810Z,90.95
2022-09-12T05:10:09.969Z,90.83
2022-09-12T05:12:53.721Z,90.75
2022-09-12T05:15:39.374Z,90.61
2022-09-12T05:18:21.497Z,90.52
2022-09-12T05:21:15.756Z,90.41
2022-09-12T06:42:29.200Z,72.22
2022-09-12T06:45:02.491Z,70.39
2022-09-12T06:47:37.226Z,68.45
2022-09-12T06:50:11.068Z,66.73
2022-09-12T06:52:44.451Z,65.41
2022-09-12T06:55:20.355Z,65.53
2022-09-12T06:58:01.605Z,64.14
2022-09-12T07:00:33.789Z,63.29
2022-09-12T07:03:09.489Z,62.97
2022-09-12T07:05:41.301Z,61.65
2022-09-12T07:08:13.423Z,60.04
2022-09-12T07:10:45.549Z,59.48
2022-09-12T07:13:17.727Z,55.92
2022-09-12T07:15:50.234Z,56.10
2022-09-12T07:18:23.717Z,54.77
2022-09-12T07:20:56.012Z,55.00
2022-09-12T07:23:27.919Z,54.37
2022-09-12T07:26:02.251Z,53.30
2022-09-12T07:28:35.460Z,52.40
2022-09-12T07:31:19.381Z,52.69
2022-09-12T07:33:54.663Z,52.88
2022-09-12T07:36:27.757Z,53.34
2022-09-12T07:39:00.172Z,53.84
2022-09-12T07:41:34.964Z,54.41
2022-09-12T07:44:09.381Z,55.00
2022-09-12T07:46:41.597Z,55.40
2022-09-12T07:49:15.972Z,54.87
2022-09-12T07:51:47.883Z,54.13
2022-09-12T07:54:19.911Z,52.86
2022-09-12T07:56:54.276Z,52.24
2022-09-12T07:59:48.865Z,51.69
2022-09-12T08:02:21.332Z,51.35
2022-09-12T08:05:13.961Z,52.04
2022-09-12T08:07:57.848Z,51.78
2022-09-12T08:10:29.905Z,52.48
2022-09-12T08:13:03.115Z,51.96
2022-09-12T08:15:35.520Z,51.25
2022-09-12T08:18:07.698Z,51.48
2022-09-12T08:20:39.824Z,52.65
2022-09-12T08:23:25.062Z,52.84
2022-09-12T08:26:04.146Z,52.89
2022-09-12T08:28:40.411Z,52.74
2022-09-12T08:31:16.818Z,52.20
2022-09-12T08:33:49.681Z,52.26
2022-09-12T08:36:24.386Z,52.87
2022-09-12T08:39:00.399Z,53.17
2022-09-12T08:41:36.907Z,53.16
2022-09-12T08:44:29.802Z,53.73
2022-09-12T08:47:22.344Z,53.39
2022-09-12T08:50:03.632Z,54.37
2022-09-12T08:52:40.285Z,54.93
2022-09-12T08:55:33.282Z,55.07
2022-09-12T08:58:16.167Z,54.79
2022-09-12T09:01:02.959Z,55.36
2022-09-12T09:04:02.739Z,55.18
2022-09-12T09:06:51.558Z,55.86
2022-09-12T09:09:33.176Z,56.78
2022-09-12T09:12:13.563Z,56.46
2022-09-12T09:15:12.088Z,57.07
2022-09-12T09:17:47.511Z,55.67
2022-09-12T09:20:29.730Z,55.04
2022-09-12T09:23:07.783Z,54.43
2022-09-12T09:25:56.753Z,54.39
2022-09-12T09:28:37.566Z,53.85
2022-09-12T09:31:15.775Z,53.08
2022-09-12T09:33:55.306Z,53.49
2022-09-12T09:36:45.131Z,53.44
2022-09-12T09:39:27.133Z,53.38
2022-09-12T09:42:03.147Z,53.97
2022-09-12T09:44:36.187Z,54.45
2022-09-12T09:47:13.267Z,54.95
2022-09-12T09:49:45.813Z,55.22
2022-09-12T09:52:22.443Z,54.90
2022-09-12T09:54:58.514Z,54.92
2022-09-12T09:57:46.671Z,56.02
2022-09-12T10:00:27.841Z,56.69
2022-09-12T10:03:29.885Z,57.10
2022-09-12T10:06:07.346Z,57.50
2022-09-12T10:08:42.285Z,56.94
2022-09-12T10:11:23.000Z,56.76
2022-09-12T10:14:01.443Z,56.79
2022-09-12T10:16:53.425Z,57.54
2022-09-12T10:19:35.168Z,57.85
2022-09-12T10:22:22.332Z,57.57
2022-09-12T10:24:56.562Z,57.29
2022-09-12T10:27:33.452Z,57.19
2022-09-12T10:30:21.969Z,57.44
2022-09-12T10:32:55.527Z,57.39
2022-09-12T10:35:33.565Z,57.09
2022-09-12T10:38:29.349Z,56.62
2022-09-12T10:41:04.663Z,56.35
2022-09-12T10:43:40.017Z,55.87
2022-09-12T10:46:40.065Z,55.56
2022-09-12T10:49:24.216Z,56.16
2022-09-12T10:51:59.723Z,56.54
2022-09-12T10:54:31.698Z,56.41
2022-09-12T10:57:49.842Z,56.06
2022-09-12T11:00:31.266Z,55.62
2022-09-12T11:03:16.375Z,55.73
2022-09-12T11:05:56.437Z,54.86
2022-09-12T11:08:52.050Z,55.11
2022-09-12T11:11:38.392Z,55.50
2022-09-12T11:14:29.032Z,55.45
2022-09-12T11:17:16.217Z,54.96
2022-09-12T11:20:11.273Z,54.94
2022-09-12T11:23:02.868Z,54.42
2022-09-12T11:25:40.581Z,53.50
2022-09-12T11:28:26.826Z,53.56
2022-09-12T11:31:16.898Z,53.96
2022-09-12T11:33:56.538Z,54.55
2022-09-12T11:36:39.089Z,54.88
2022-09-12T11:39:18.119Z,54.67
2022-09-12T11:41:58.171Z,53.50
2022-09-12T11:44:40.265Z,52.61
2022-09-12T11:47:24.493Z,52.92
2022-09-12T11:50:00.285Z,52.72
2022-09-12T11:52:41.653Z,53.10
2022-09-12T11:55:24.038Z,52.95
2022-09-12T11:58:09.662Z,53.73
2022-09-12T12:00:48.482Z,53.54
2022-09-12T12:03:38.338Z,55.65
2022-09-12T12:06:18.967Z,56.58
2022-09-12T12:09:05.419Z,57.49
2022-09-12T12:11:44.343Z,57.59
2022-09-12T12:14:22.804Z,57.64
2022-09-12T12:17:19.802Z,57.86
2022-09-12T12:20:08.583Z,58.45
2022-09-12T12:22:54.516Z,58.91
2022-09-12T12:25:53.816Z,59.36
2022-09-12T12:29:01.058Z,60.05
2022-09-12T12:31:56.364Z,60.70
2022-09-12T12:34:49.639Z,61.26
2022-09-12T12:37:52.054Z,61.75
2022-09-12T12:40:30.988Z,62.31
2022-09-12T12:43:32.589Z,62.56
2022-09-12T12:46:14.287Z,63.08
2022-09-12T12:49:04.896Z,63.30
2022-09-12T12:51:50.352Z,63.08
2022-09-12T12:54:35.935Z,63.35
2022-09-12T12:57:25.753Z,63.63
2022-09-12T13:00:01.199Z,63.47
2022-09-12T13:02:50.446Z,63.71
2022-09-12T13:05:27.972Z,63.38
2022-09-12T13:08:28.692Z,63.73
2022-09-12T13:11:15.406Z,63.95
2022-09-12T13:13:54.141Z,64.03
2022-09-12T13:16:40.633Z,63.94
2022-09-12T13:19:19.325Z,63.34
2022-09-12T13:22:01.137Z,63.45
2022-09-12T13:24:33.825Z,63.63
2022-09-12T13:27:22.745Z,63.27
2022-09-12T13:30:15.196Z,62.71
2022-09-12T13:32:50.766Z,62.05
2022-09-12T13:35:33.604Z,61.65
2022-09-12T13:38:18.243Z,61.35
2022-09-12T13:41:07.178Z,60.52
2022-09-12T13:43:43.294Z,60.86
2022-09-12T13:46:23.806Z,61.24
2022-09-12T13:48:59.321Z,60.87
2022-09-12T13:51:33.257Z,61.05
2022-09-12T13:54:06.966Z,60.77
2022-09-12T13:56:50.143Z,60.13
2022-09-12T13:59:42.718Z,59.96
2022-09-12T14:02:22.298Z,59.42
2022-09-12T14:05:11.877Z,59.01
2022-09-12T14:08:02.920Z,58.22
2022-09-12T14:10:38.199Z,58.36
2022-09-12T14:13:17.937Z,58.73
2022-09-12T14:15:56.330Z,57.96
2022-09-12T14:18:31.238Z,57.36
2022-09-12T14:21:12.777Z,57.85
2022-09-12T14:23:48.174Z,58.26
2022-09-12T14:26:33.462Z,58.72
2022-09-12T14:29:08.665Z,58.80
2022-09-12T14:31:43.625Z,58.99
2022-09-12T14:34:18.084Z,59.03
2022-09-12T14:37:07.371Z,58.47
2022-09-12T14:39:51.945Z,58.63
2022-09-12T14:42:28.073Z,58.39
2022-09-12T14:45:02.535Z,59.08
2022-09-12T14:47:41.270Z,59.51
2022-09-12T14:50:27.714Z,59.42
2022-09-12T14:53:08.030Z,59.51
2022-09-12T14:55:50.888Z,59.77
2022-09-12T14:58:28.589Z,59.65
2022-09-12T15:01:02.880Z,59.92
2022-09-12T15:03:54.903Z,60.14
2022-09-12T15:06:41.632Z,60.66
2022-09-12T15:09:23.601Z,60.84
2022-09-12T15:11:56.024Z,61.19
2022-09-12T15:14:37.123Z,61.09
2022-09-12T15:17:09.235Z,61.13
2022-09-12T15:19:55.186Z,61.32
2022-09-12T15:22:27.771Z,61.16
2022-09-12T15:25:02.697Z,61.32
2022-09-12T15:27:40.966Z,61.65
2022-09-12T15:30:15.649Z,62.06
2022-09-12T15:32:50.418Z,62.45
2022-09-12T15:35:35.450Z,62.89
2022-09-12T15:38:13.309Z,63.15
2022-09-12T15:40:46.803Z,63.38
2022-09-12T15:43:19.055Z,63.11
2022-09-12T15:46:14.844Z,62.93
2022-09-12T15:48:50.631Z,63.25
2022-09-12T15:51:23.716Z,63.25
2022-09-12T15:53:59.206Z,63.38
2022-09-12T15:56:33.580Z,63.60
2022-09-12T15:59:26.033Z,63.47
2022-09-12T16:02:18.334Z,63.76
2022-09-12T16:05:00.633Z,63.88
2022-09-12T16:07:39.442Z,63.87
2022-09-12T16:10:32.361Z,64.20
2022-09-12T16:13:06.964Z,64.30
2022-09-12T16:15:41.537Z,64.57
2022-09-12T16:18:17.080Z,64.53
2022-09-12T16:21:00.418Z,64.61
2022-09-12T16:23:34.891Z,64.63
2022-09-12T16:26:09.561Z,65.04
2022-09-12T16:28:41.450Z,65.23
2022-09-12T16:31:17.728Z,65.41
2022-09-12T16:33:52.934Z,65.57
2022-09-12T16:36:25.338Z,65.87
2022-09-12T16:39:10.159Z,65.87
2022-09-12T16:41:44.805Z,66.23
2022-09-12T16:44:19.388Z,66.30
2022-09-12T16:46:51.428Z,66.36
2022-09-12T16:49:36.890Z,66.56
2022-09-12T16:52:14.221Z,66.95
2022-09-12T16:55:07.855Z,67.06
2022-09-12T16:57:42.512Z,67.28
2022-09-12T17:00:26.960Z,67.89
2022-09-12T17:02:59.980Z,67.99
2022-09-12T17:06:01.795Z,68.33
2022-09-12T17:08:39.228Z,68.56
2022-09-12T17:11:14.054Z,68.73
2022-09-12T17:14:05.356Z,68.98
2022-09-12T17:16:52.023Z,69.40
2022-09-12T17:19:29.996Z,69.83
2022-09-12T17:22:02.359Z,70.27
2022-09-12T17:24:47.658Z,70.43
2022-09-12T17:27:19.845Z,70.65
2022-09-12T17:30:01.864Z,71.16
2022-09-12T17:32:37.114Z,71.84
2022-09-12T17:35:22.655Z,72.48
2022-09-12T17:37:58.085Z,72.92
2022-09-12T17:40:58.500Z,73.27
2022-09-12T17:43:55.853Z,73.59
2022-09-12T17:46:35.251Z,73.87
2022-09-12T17:49:12.897Z,73.99
2022-09-12T17:51:48.131Z,74.11
2022-09-12T17:54:34.509Z,74.38
2022-09-12T17:57:16.374Z,74.56
2022-09-12T17:59:57.017Z,74.75
2022-09-12T18:02:34.995Z,75.24
2022-09-12T18:05:19.783Z,75.27
2022-09-12T18:08:00.962Z,75.60
2022-09-12T18:10:56.088Z,75.39
2022-09-12T18:13:30.598Z,75.60
2022-09-12T18:16:23.313Z,75.99
2022-09-12T18:19:02.998Z,76.15
2022-09-12T18:21:56.136Z,76.69
2022-09-12T18:24:48.447Z,76.95
2022-09-12T18:27:40.831Z,77.01
2022-09-12T18:30:22.094Z,76.79
2022-09-12T18:33:14.713Z,76.98
2022-09-12T18:35:51.240Z,77.16
2022-09-12T18:38:31.670Z,77.37
2022-09-12T18:41:20.507Z,77.62
2022-09-12T18:43:58.325Z,77.43
2022-09-12T18:46:50.386Z,77.68
2022-09-12T18:49:27.434Z,77.78
2022-09-12T18:52:09.799Z,77.85
2022-09-12T18:54:42.082Z,78.15
2022-09-12T18:57:35.436Z,78.19
2022-09-12T19:00:28.088Z,78.32
2022-09-12T19:03:01.696Z,78.55
2022-09-12T19:05:56.368Z,78.62
2022-09-12T19:08:33.525Z,78.99
2022-09-12T19:11:18.698Z,79.10
2022-09-12T19:14:11.582Z,79.21
2022-09-12T19:16:51.426Z,79.55
2022-09-12T19:19:37.608Z,79.56
2022-09-12T19:22:17.991Z,79.71
2022-09-12T19:24:53.248Z,79.77
2022-09-12T19:27:36.813Z,79.80
2022-09-12T19:30:29.241Z,79.92
2022-09-12T19:33:29.750Z,80.02
2022-09-12T19:36:27.621Z,79.80
2022-09-12T19:39:25.104Z,79.79
2022-09-12T19:42:14.350Z,79.81
2022-09-12T19:44:53.167Z,80.07
2022-09-12T19:47:36.182Z,80.08
2022-09-12T19:50:18.839Z,79.84
2022-09-12T19:53:11.239Z,80.08
2022-09-12T19:55:46.824Z,80.46
2022-09-12T19:58:37.084Z,80.45
2022-09-12T20:01:30.217Z,80.25
2022-09-12T20:04:26.259Z,80.58
2022-09-12T20:07:21.432Z,80.42
2022-09-12T20:10:22.837Z,80.47
2022-09-12T20:13:04.947Z,80.58
2022-09-12T20:15:57.740Z,80.64
2022-09-12T20:18:54.121Z,80.68
2022-09-12T20:21:46.948Z,80.80
2022-09-12T20:24:32.750Z,81.07
2022-09-12T20:27:14.511Z,81.35
2022-09-12T20:30:10.534Z,81.49
2022-09-12T20:32:54.090Z,81.23
2022-09-12T20:35:29.136Z,81.55
2022-09-12T20:38:19.705Z,81.69
2022-09-12T20:41:15.423Z,82.20
2022-09-12T20:44:00.926Z,82.34
2022-09-12T20:46:45.996Z,82.17
2022-09-12T20:49:31.481Z,82.23
2022-09-12T20:52:07.773Z,82.11
2022-09-12T20:54:53.408Z,81.59
2022-09-12T20:57:35.550Z,81.88
2022-09-12T21:00:28.505Z,81.59
2022-09-12T21:03:12.791Z,81.69
2022-09-12T21:05:46.126Z,81.44
2022-09-12T21:08:28.234Z,81.43
2022-09-12T21:11:21.193Z,81.44
2022-09-12T21:14:13.402Z,81.39
2022-09-12T21:16:54.329Z,81.53
2022-09-12T21:19:46.668Z,81.26
2022-09-12T21:22:26.750Z,81.01
2022-09-12T21:25:13.291Z,81.16
2022-09-12T21:27:56.412Z,81.48
2022-09-12T21:30:35.903Z,81.60
2022-09-12T21:33:22.309Z,81.72
2022-09-12T21:36:16.154Z,81.81
2022-09-12T21:39:08.286Z,81.91
2022-09-12T21:41:42.921Z,81.80
2022-09-12T21:44:35.199Z,81.89
2022-09-12T21:47:12.349Z,81.84
2022-09-12T21:49:53.069Z,81.93
2022-09-12T21:52:45.754Z,81.85
2022-09-12T21:55:39.116Z,81.99
2022-09-12T21:58:21.718Z,82.01
2022-09-12T22:01:04.661Z,82.08
2022-09-12T22:03:39.672Z,82.07
2022-09-12T22:06:17.729Z,82.40
2022-09-12T22:09:17.200Z,82.40
2022-09-12T22:12:09.845Z,82.67
2022-09-12T22:14:51.384Z,82.74
2022-09-12T22:17:28.700Z,82.73
2022-09-12T22:20:19.690Z,82.69
2022-09-12T22:23:30.176Z,82.60
2022-09-12T22:26:22.577Z,82.85
2022-09-12T22:29:14.580Z,82.79
2022-09-12T22:31:51.455Z,82.58
2022-09-12T22:34:34.603Z,82.45
2022-09-12T22:37:14.526Z,82.31
2022-09-12T22:39:59.064Z,82.30
2022-09-12T22:42:54.048Z,82.43
2022-09-12T22:45:30.789Z,82.51
2022-09-12T22:48:21.341Z,82.48
2022-09-12T22:51:06.650Z,82.46
2022-09-12T22:53:49.115Z,82.99
2022-09-12T22:56:41.713Z,82.96
2022-09-12T22:59:34.013Z,83.05
2022-09-12T23:02:09.978Z,82.98
2022-09-12T23:04:55.276Z,83.12
2022-09-12T23:07:40.221Z,83.15
2022-09-12T23:10:32.621Z,83.47
2022-09-12T23:13:15.408Z,83.54
2022-09-12T23:16:09.167Z,83.76
2022-09-12T23:19:01.517Z,83.93
2022-09-12T23:21:53.801Z,83.51
2022-09-12T23:24:44.597Z,83.29
2022-09-12T23:27:35.413Z,83.79
2022-09-12T23:30:27.627Z,84.16
2022-09-12T23:33:02.870Z,84.28
2022-09-12T23:35:46.530Z,84.28
2022-09-12T23:38:34.591Z,84.11
2022-09-12T23:41:27.724Z,83.87
2022-09-12T23:44:20.098Z,83.97
2022-09-12T23:47:03.505Z,84.02
2022-09-12T23:49:48.230Z,83.98
2022-09-12T23:52:30.929Z,83.91
2022-09-12T23:55:23.754Z,83.94
2022-09-12T23:58:16.558Z,83.53
